createdAt,value
2022-10-28T00:00:10.204Z,86.30
2022-10-28T00:02:37.686Z,86.02
2022-10-28T00:05:04.526Z,86.26
2022-10-28T00:07:31.097Z,85.64
2022-10-28T00:09:58.564Z,85.63
2022-10-28T00:12:25.127Z,86.38
2022-10-28T00:14:52.099Z,86.09
2022-10-28T00:17:21.846Z,86.19
2022-10-28T00:19:48.665Z,85.85
2022-10-28T00:22:15.258Z,85.95
2022-10-28T00:24:41.885Z,85.75
2022-10-28T00:27:08.473Z,85.94
2022-10-28T00:29:35.079Z,85.63
2022-10-28T00:32:01.709Z,85.03
2022-10-28T00:34:28.326Z,84.97
2022-10-28T00:36:54.926Z,85.14
2022-10-28T00:39:24.372Z,85.47
2022-10-28T00:41:57.836Z,85.02
2022-10-28T00:44:40.638Z,85.05
2022-10-28T00:47:16.963Z,85.32
2022-10-28T00:49:46.734Z,85.55
2022-10-28T00:52:21.144Z,84.63
2022-10-28T00:54:51.927Z,85.66
2022-10-28T00:57:23.065Z,85.29
2022-10-28T00:59:53.036Z,84.72
2022-10-28T01:02:20.377Z,84.85
2022-10-28T01:04:47.875Z,84.80
2022-10-28T01:07:16.730Z,84.67
2022-10-28T01:09:44.306Z,85.05
2022-10-28T01:12:44.458Z,85.21
2022-10-28T01:15:23.020Z,85.03
2022-10-28T01:17:59.125Z,84.41
2022-10-28T01:20:45.248Z,84.96
2022-10-28T01:23:32.709Z,85.30
2022-10-28T01:26:37.124Z,84.55
2022-10-28T01:29:35.701Z,85.00
2022-10-28T01:32:09.693Z,85.05
2022-10-28T01:34:49.644Z,84.48
2022-10-28T01:37:49.401Z,84.82
2022-10-28T01:40:49.734Z,84.46
2022-10-28T01:43:21.716Z,84.29
2022-10-28T01:46:17.560Z,84.75
2022-10-28T01:48:51.128Z,84.47
2022-10-28T01:51:26.601Z,84.69
2022-10-28T01:53:56.905Z,84.84
2022-10-28T01:56:28.373Z,83.94
2022-10-28T01:58:59.104Z,84.46
2022-10-28T02:01:27.498Z,84.57
2022-10-28T02:03:55.417Z,84.61
2022-10-28T02:06:25.465Z,85.07
2022-10-28T02:09:04.200Z,84.93
2022-10-28T02:11:42.592Z,84.75
2022-10-28T02:14:11.760Z,84.52
2022-10-28T02:16:43.663Z,84.86
2022-10-28T02:19:20.101Z,84.54
2022-10-28T02:21:46.625Z,84.85
2022-10-28T02:24:25.284Z,84.29
2022-10-28T02:27:00.734Z,84.83
2022-10-28T02:29:36.169Z,84.24
2022-10-28T02:32:08.897Z,85.13
2022-10-28T02:34:45.204Z,84.62
2022-10-28T02:37:18.631Z,85.01
2022-10-28T02:39:52.512Z,84.60
2022-10-28T02:42:24.285Z,84.73
2022-10-28T02:45:01.820Z,84.52
2022-10-28T02:47:33.790Z,84.40
2022-10-28T15:39:17.001Z,81.90
2022-10-28T15:41:52.495Z,82.54
2022-10-28T15:44:39.034Z,82.86
2022-10-28T15:47:26.045Z,83.23
2022-10-28T15:50:06.293Z,83.26
2022-10-28T15:52:50.226Z,82.80
2022-10-28T15:55:21.756Z,82.65
2022-10-28T15:57:59.553Z,81.82
2022-10-28T16:00:31.453Z,81.55
2022-10-28T16:05:59.449Z,81.66
2022-10-28T16:08:29.951Z,81.49
2022-10-28T16:11:06.589Z,81.45
2022-10-28T16:13:47.232Z,81.54
2022-10-28T16:16:22.756Z,81.10
2022-10-28T16:18:55.212Z,81.35
2022-10-28T16:21:27.293Z,81.39
2022-10-28T16:23:59.122Z,81.47
2022-10-28T16:26:26.760Z,81.95
2022-10-28T16:28:54.318Z,81.19
2022-10-28T16:31:25.025Z,81.10
2022-10-28T16:33:51.740Z,81.00
2022-10-28T16:36:18.538Z,80.95
2022-10-28T16:38:46.710Z,80.89
2022-10-28T16:41:18.822Z,80.77
2022-10-28T16:43:46.073Z,80.96
2022-10-28T16:46:13.839Z,81.12
2022-10-28T16:48:41.247Z,81.10
2022-10-28T16:51:16.360Z,80.92
2022-10-28T16:53:47.170Z,81.43
2022-10-28T16:56:17.054Z,80.87
2022-10-28T16:58:46.647Z,80.90
2022-10-28T17:01:19.769Z,81.27
2022-10-28T17:03:46.532Z,80.78
2022-10-28T17:06:13.174Z,80.74
2022-10-28T17:09:01.838Z,81.28
2022-10-28T17:11:27.197Z,80.74
2022-10-28T17:13:53.786Z,81.07
2022-10-28T17:16:20.448Z,80.84
2022-10-28T17:18:57.094Z,80.77
2022-10-28T17:21:23.767Z,81.18
2022-10-28T17:23:50.649Z,80.70
2022-10-28T17:26:21.082Z,80.29
2022-10-28T17:28:52.377Z,80.75
2022-10-28T17:31:23.928Z,79.97
2022-10-28T17:33:55.442Z,80.66
2022-10-28T17:36:23.245Z,80.10
2022-10-28T17:38:50.876Z,80.23
2022-10-28T17:41:18.258Z,80.02
2022-10-28T17:43:44.838Z,80.19
2022-10-28T17:46:11.389Z,80.34
2022-10-28T17:48:39.803Z,79.70
2022-10-28T17:51:08.655Z,79.75
2022-10-28T17:53:35.349Z,80.09
2022-10-28T17:56:05.623Z,80.21
2022-10-28T17:58:33.625Z,79.74
2022-10-28T18:01:07.067Z,79.73
2022-10-28T18:03:38.253Z,79.64
2022-10-28T18:06:07.755Z,79.87
2022-10-28T18:08:37.425Z,79.46
2022-10-28T18:11:05.623Z,79.16
2022-10-28T18:13:35.345Z,79.37
2022-10-28T18:16:13.427Z,79.60
2022-10-28T18:18:42.560Z,79.20
2022-10-28T18:21:10.802Z,79.58
2022-10-28T18:23:37.735Z,79.41
2022-10-28T18:26:15.345Z,79.49
2022-10-28T18:28:43.392Z,79.62
2022-10-28T18:31:11.671Z,79.34
2022-10-28T18:33:39.827Z,79.46
2022-10-28T18:36:10.714Z,79.48
2022-10-28T18:38:37.860Z,79.52
2022-10-28T18:41:04.618Z,79.48
2022-10-28T18:43:31.239Z,79.86
2022-10-28T18:46:02.353Z,79.37
2022-10-28T18:48:30.737Z,79.22
2022-10-28T18:51:06.795Z,79.31
2022-10-28T18:53:38.346Z,79.32
2022-10-28T18:56:12.565Z,79.41
2022-10-28T18:58:40.027Z,79.63
2022-10-28T19:01:21.376Z,79.45
2022-10-28T19:03:52.913Z,79.69
2022-10-28T19:06:20.469Z,79.68
2022-10-28T19:08:52.290Z,79.44
2022-10-28T19:11:22.566Z,79.58
2022-10-28T19:13:49.426Z,79.47
2022-10-28T19:16:16.043Z,79.44
2022-10-28T19:18:42.705Z,79.02
2022-10-28T19:21:13.754Z,79.66
2022-10-28T19:23:41.116Z,79.76
2022-10-28T19:26:08.714Z,79.19
2022-10-28T19:28:46.618Z,79.49
2022-10-28T19:31:19.641Z,79.46
2022-10-28T19:33:46.712Z,79.45
2022-10-28T19:36:18.633Z,79.42
2022-10-28T19:38:49.817Z,79.18
2022-10-28T19:41:19.926Z,79.29
2022-10-28T19:43:47.158Z,79.08
2022-10-28T19:46:16.500Z,79.18
2022-10-28T19:48:45.758Z,80.34
2022-10-28T19:51:15.393Z,81.30
2022-10-28T19:53:47.662Z,81.95
2022-10-28T19:58:54.222Z,82.79
2022-10-28T20:01:22.302Z,82.95
2022-10-28T20:03:53.225Z,83.12
2022-10-28T20:06:22.873Z,83.34
2022-10-28T20:08:49.961Z,83.29
2022-10-28T20:11:21.377Z,83.43
2022-10-28T20:14:05.017Z,83.45
2022-10-28T20:16:32.956Z,83.12
2022-10-28T20:18:59.891Z,83.31
2022-10-28T20:21:28.707Z,83.26
2022-10-28T20:23:56.999Z,83.43
2022-10-28T20:26:26.006Z,83.30
2022-10-28T20:28:53.712Z,83.71
2022-10-28T20:31:22.757Z,83.23
2022-10-28T20:33:54.619Z,83.44
2022-10-28T20:36:28.285Z,82.99
2022-10-28T20:39:03.814Z,82.91
2022-10-28T20:41:33.530Z,83.45
2022-10-28T20:44:00.653Z,82.92
2022-10-28T20:46:27.747Z,83.13
2022-10-28T20:48:54.907Z,82.92
2022-10-28T20:51:22.075Z,83.09
2022-10-28T20:53:48.814Z,83.13
2022-10-28T20:56:17.969Z,82.60
2022-10-28T20:58:44.891Z,82.70
2022-10-28T21:01:15.907Z,83.04
2022-10-28T21:03:44.026Z,82.88
2022-10-28T21:08:45.183Z,82.87
2022-10-28T21:11:14.086Z,82.63
2022-10-28T21:13:41.428Z,83.09
2022-10-28T21:16:11.942Z,83.06
2022-10-28T21:18:39.367Z,83.22
2022-10-28T21:21:06.924Z,83.32
2022-10-28T21:23:33.612Z,83.26
2022-10-28T21:26:02.381Z,83.26
2022-10-28T21:28:30.364Z,83.27
2022-10-28T21:31:17.190Z,83.12
2022-10-28T21:33:44.508Z,83.68
2022-10-28T21:36:13.924Z,83.70
2022-10-28T21:38:41.045Z,83.55
2022-10-28T21:41:17.069Z,83.75
2022-10-28T21:43:48.595Z,84.20
2022-10-28T21:46:16.286Z,83.83
2022-10-28T21:48:43.394Z,83.64
2022-10-28T21:51:14.451Z,84.42
2022-10-28T21:53:43.681Z,83.68
2022-10-28T21:56:21.630Z,83.83
2022-10-28T21:58:50.218Z,83.86
2022-10-28T22:01:23.443Z,83.90
2022-10-28T22:03:51.872Z,84.58
2022-10-28T22:06:18.519Z,84.60
2022-10-28T22:08:45.893Z,84.48
2022-10-28T22:11:18.133Z,84.85
2022-10-28T22:13:44.762Z,84.85
2022-10-28T22:16:14.036Z,84.94
2022-10-28T22:18:41.266Z,84.89
2022-10-28T22:21:20.929Z,85.13
2022-10-28T22:23:48.264Z,85.35
2022-10-28T22:26:18.836Z,85.36
2022-10-28T22:28:45.922Z,84.71
2022-10-28T22:31:16.131Z,85.47
2022-10-28T22:33:42.850Z,85.23
2022-10-28T22:36:20.770Z,85.33
2022-10-28T22:38:48.705Z,85.57
2022-10-28T22:41:26.059Z,85.78
2022-10-28T22:43:57.726Z,86.17
2022-10-28T22:46:26.953Z,86.84
2022-10-28T22:48:54.190Z,86.93
2022-10-28T22:51:21.017Z,87.14
2022-10-28T22:53:49.605Z,87.13
2022-10-28T22:56:21.798Z,87.88
2022-10-28T22:58:53.188Z,87.99
2022-10-28T23:01:20.255Z,88.16
2022-10-28T23:03:48.920Z,88.60
2022-10-28T23:06:17.513Z,88.55
2022-10-28T23:08:47.417Z,88.72
2022-10-28T23:11:16.258Z,89.27
2022-10-28T23:13:43.417Z,89.42
2022-10-28T23:16:12.516Z,89.47
2022-10-28T23:18:39.824Z,89.64
2022-10-28T23:21:12.758Z,89.77
2022-10-28T23:23:40.258Z,90.29
2022-10-28T23:26:07.815Z,90.17
2022-10-28T23:28:34.546Z,90.39
2022-10-28T23:31:03.125Z,90.52
2022-10-28T23:33:31.105Z,90.31
2022-10-28T23:35:59.051Z,90.62
2022-10-28T23:38:27.141Z,90.36
2022-10-28T23:41:07.454Z,90.70
2022-10-28T23:43:34.429Z,91.09
2022-10-28T23:46:01.567Z,90.61
2022-10-28T23:48:30.054Z,91.38
2022-10-28T23:50:57.208Z,91.96
2022-10-28T23:53:24.402Z,91.69
2022-10-28T23:55:52.434Z,91.93
2022-10-28T23:58:20.837Z,92.41
